sensor_id;sensor_type;location;lat;lon;timestamp;pressure;altitude;pressure_sealevel;temperature
62107;BMP280;48087;32.600;-97.100;2022-10-26T00:03:26;;;;16.277614999999997
62107;BMP280;48087;32.600;-97.100;2022-10-26T00:08:30;;;;15.610955
62107;BMP280;48087;32.600;-97.100;2022-10-26T00:13:35;;;;15.610955
62107;BMP280;48087;32.600;-97.100;2022-10-26T00:18:38;;;;15.499844999999999
62107;BMP280;48087;32.600;-97.100;2022-10-26T00:23:42;;;;15.499844999999999
62107;BMP280;48087;32.600;-97.100;2022-10-26T00:28:46;;;;15.055405
62107;BMP280;48087;32.600;-97.100;2022-10-26T00:33:51;;;;14.4443
62107;BMP280;48087;32.600;-97.100;2022-10-26T00:38:54;;;;14.388744999999998
62107;BMP280;48087;32.600;-97.100;2022-10-26T00:43:59;;;;13.999860000000002
62107;BMP280;48087;32.600;-97.100;2022-10-26T00:49:02;;;;13.610975
62107;BMP280;48087;32.600;-97.100;2022-10-26T00:54:08;;;;13.610975
62107;BMP280;48087;32.600;-97.100;2022-10-26T00:59:11;;;;13.499864999999998
62107;BMP280;48087;32.600;-97.100;2022-10-26T01:04:15;;;;12.99987
62107;BMP280;48087;32.600;-97.100;2022-10-26T01:09:18;;;;12.666539999999998
62107;BMP280;48087;32.600;-97.100;2022-10-26T01:14:23;;;;12.44432
62107;BMP280;48087;32.600;-97.100;2022-10-26T01:20:38;;;;12.277655000000001
62107;BMP280;48087;32.600;-97.100;2022-10-26T01:24:36;;;;12.388764999999998
62107;BMP280;48087;32.600;-97.100;2022-10-26T01:29:45;;;;12.666539999999998
62107;BMP280;48087;32.600;-97.100;2022-10-26T01:34:40;;;;12.555430000000001
62107;BMP280;48087;32.600;-97.100;2022-10-26T01:39:43;;;;12.277655000000001
62107;BMP280;48087;32.600;-97.100;2022-10-26T01:44:46;;;;11.88877
62107;BMP280;48087;32.600;-97.100;2022-10-26T01:49:51;;;;11.722105
62107;BMP280;48087;32.600;-97.100;2022-10-26T01:54:59;;;;11.555439999999999
62107;BMP280;48087;32.600;-97.100;2022-10-26T02:00:01;;;;11.44433
62107;BMP280;48087;32.600;-97.100;2022-10-26T02:05:08;;;;11.22211
62107;BMP280;48087;32.600;-97.100;2022-10-26T02:10:08;;;;11.055444999999999
62107;BMP280;48087;32.600;-97.100;2022-10-26T02:15:12;;;;11.722105
62107;BMP280;48087;32.600;-97.100;2022-10-26T02:20:15;;;;11.999880000000001
62107;BMP280;48087;32.600;-97.100;2022-10-26T02:25:19;;;;12.110989999999997
62107;BMP280;48087;32.600;-97.100;2022-10-26T02:30:21;;;;12.055435000000001
62107;BMP280;48087;32.600;-97.100;2022-10-26T02:35:28;;;;11.999880000000001
62107;BMP280;48087;32.600;-97.100;2022-10-26T02:40:30;;;;12.277655000000001
62107;BMP280;48087;32.600;-97.100;2022-10-26T02:45:36;;;;12.166545
62107;BMP280;48087;32.600;-97.100;2022-10-26T02:50:39;;;;11.999880000000001
62107;BMP280;48087;32.600;-97.100;2022-10-26T02:55:42;;;;11.44433
62107;BMP280;48087;32.600;-97.100;2022-10-26T03:00:45;;;;10.999889999999999
62107;BMP280;48087;32.600;-97.100;2022-10-26T03:05:50;;;;10.55545
62107;BMP280;48087;32.600;-97.100;2022-10-26T03:10:53;;;;10.833225
62107;BMP280;48087;32.600;-97.100;2022-10-26T03:15:58;;;;11.166555
62107;BMP280;48087;32.600;-97.100;2022-10-26T03:21:02;;;;11.22211
62107;BMP280;48087;32.600;-97.100;2022-10-26T03:26:06;;;;11.166555
62107;BMP280;48087;32.600;-97.100;2022-10-26T03:31:09;;;;11.055444999999999
62107;BMP280;48087;32.600;-97.100;2022-10-26T03:36:14;;;;10.777669999999999
62107;BMP280;48087;32.600;-97.100;2022-10-26T03:41:17;;;;10.388785000000002
62107;BMP280;48087;32.600;-97.100;2022-10-26T03:46:21;;;;10.111010000000002
62107;BMP280;48087;32.600;-97.100;2022-10-26T03:51:25;;;;10.33323
62107;BMP280;48087;32.600;-97.100;2022-10-26T03:56:30;;;;10.33323
62107;BMP280;48087;32.600;-97.100;2022-10-26T04:01:34;;;;9.9999
62107;BMP280;48087;32.600;-97.100;2022-10-26T04:06:38;;;;9.611014999999998
62107;BMP280;48087;32.600;-97.100;2022-10-26T04:11:42;;;;9.22213
62107;BMP280;48087;32.600;-97.100;2022-10-26T04:16:46;;;;8.833245
62107;BMP280;48087;32.600;-97.100;2022-10-26T04:21:50;;;;8.8888
62107;BMP280;48087;32.600;-97.100;2022-10-26T04:26:54;;;;9.555460000000002
62107;BMP280;48087;32.600;-97.100;2022-10-26T04:31:57;;;;9.44435
62107;BMP280;48087;32.600;-97.100;2022-10-26T04:37:02;;;;9.388794999999998
62107;BMP280;48087;32.600;-97.100;2022-10-26T04:42:06;;;;9.055464999999998
62107;BMP280;48087;32.600;-97.100;2022-10-26T04:47:09;;;;8.944355
62107;BMP280;48087;32.600;-97.100;2022-10-26T04:52:14;;;;9.166575
62107;BMP280;48087;32.600;-97.100;2022-10-26T04:57:18;;;;9.166575
62107;BMP280;48087;32.600;-97.100;2022-10-26T05:02:21;;;;9.333239999999998
62107;BMP280;48087;32.600;-97.100;2022-10-26T05:07:25;;;;9.277685000000002
62107;BMP280;48087;32.600;-97.100;2022-10-26T05:12:30;;;;9.277685000000002
62107;BMP280;48087;32.600;-97.100;2022-10-26T05:17:34;;;;9.277685000000002
62107;BMP280;48087;32.600;-97.100;2022-10-26T05:22:38;;;;8.777689999999998
62107;BMP280;48087;32.600;-97.100;2022-10-26T05:27:41;;;;8.277695
62107;BMP280;48087;32.600;-97.100;2022-10-26T05:32:52;;;;8.055475
62107;BMP280;48087;32.600;-97.100;2022-10-26T05:37:49;;;;8.33325
62107;BMP280;48087;32.600;-97.100;2022-10-26T05:42:58;;;;8.777689999999998
62107;BMP280;48087;32.600;-97.100;2022-10-26T05:47:56;;;;8.777689999999998
62107;BMP280;48087;32.600;-97.100;2022-10-26T05:53:02;;;;8.388805000000001
62107;BMP280;48087;32.600;-97.100;2022-10-26T05:58:07;;;;8.66658
62107;BMP280;48087;32.600;-97.100;2022-10-26T06:03:12;;;;8.777689999999998
62107;BMP280;48087;32.600;-97.100;2022-10-26T06:08:13;;;;8.8888
62107;BMP280;48087;32.600;-97.100;2022-10-26T06:13:17;;;;9.11102
62107;BMP280;48087;32.600;-97.100;2022-10-26T06:18:22;;;;9.22213
62107;BMP280;48087;32.600;-97.100;2022-10-26T06:23:31;;;;9.22213
62107;BMP280;48087;32.600;-97.100;2022-10-26T06:28:31;;;;9.277685000000002
62107;BMP280;48087;32.600;-97.100;2022-10-26T06:33:34;;;;9.388794999999998
62107;BMP280;48087;32.600;-97.100;2022-10-26T06:38:37;;;;9.277685000000002
62107;BMP280;48087;32.600;-97.100;2022-10-26T06:43:41;;;;9.166575
62107;BMP280;48087;32.600;-97.100;2022-10-26T06:48:47;;;;8.8888
62107;BMP280;48087;32.600;-97.100;2022-10-26T06:53:52;;;;8.777689999999998
62107;BMP280;48087;32.600;-97.100;2022-10-26T06:58:52;;;;8.66658
62107;BMP280;48087;32.600;-97.100;2022-10-26T07:03:57;;;;8.722135000000002
62107;BMP280;48087;32.600;-97.100;2022-10-26T07:09:01;;;;8.777689999999998
62107;BMP280;48087;32.600;-97.100;2022-10-26T07:14:05;;;;9.055464999999998
62107;BMP280;48087;32.600;-97.100;2022-10-26T07:19:08;;;;8.8888
62107;BMP280;48087;32.600;-97.100;2022-10-26T07:24:13;;;;8.8888
62107;BMP280;48087;32.600;-97.100;2022-10-26T07:29:16;;;;8.8888
62107;BMP280;48087;32.600;-97.100;2022-10-26T07:34:21;;;;8.833245
62107;BMP280;48087;32.600;-97.100;2022-10-26T07:39:25;;;;8.777689999999998
62107;BMP280;48087;32.600;-97.100;2022-10-26T07:44:28;;;;8.777689999999998
62107;BMP280;48087;32.600;-97.100;2022-10-26T07:49:32;;;;8.66658
62107;BMP280;48087;32.600;-97.100;2022-10-26T07:54:37;;;;8.66658
62107;BMP280;48087;32.600;-97.100;2022-10-26T07:59:40;;;;8.722135000000002
62107;BMP280;48087;32.600;-97.100;2022-10-26T08:04:44;;;;8.999910000000002
62107;BMP280;48087;32.600;-97.100;2022-10-26T08:09:48;;;;8.944355
62107;BMP280;48087;32.600;-97.100;2022-10-26T08:14:53;;;;8.8888
62107;BMP280;48087;32.600;-97.100;2022-10-26T08:19:56;;;;8.999910000000002
62107;BMP280;48087;32.600;-97.100;2022-10-26T08:25:01;;;;8.8888
62107;BMP280;48087;32.600;-97.100;2022-10-26T08:30:04;;;;8.8888
62107;BMP280;48087;32.600;-97.100;2022-10-26T08:35:08;;;;8.777689999999998
62107;BMP280;48087;32.600;-97.100;2022-10-26T08:40:14;;;;8.388805000000001
62107;BMP280;48087;32.600;-97.100;2022-10-26T08:45:20;;;;8.388805000000001
62107;BMP280;48087;32.600;-97.100;2022-10-26T08:50:24;;;;7.944364999999999
62107;BMP280;48087;32.600;-97.100;2022-10-26T08:55:25;;;;7.444369999999999
62107;BMP280;48087;32.600;-97.100;2022-10-26T09:00:28;;;;7.22215
62107;BMP280;48087;32.600;-97.100;2022-10-26T09:05:35;;;;6.999930000000001
62107;BMP280;48087;32.600;-97.100;2022-10-26T09:10:38;;;;7.055485000000002
62107;BMP280;48087;32.600;-97.100;2022-10-26T09:15:45;;;;6.833264999999998
62107;BMP280;48087;32.600;-97.100;2022-10-26T09:20:55;;;;6.6666
62107;BMP280;48087;32.600;-97.100;2022-10-26T09:25:50;;;;6.388825
62107;BMP280;48087;32.600;-97.100;2022-10-26T09:30:53;;;;6.888819999999999
62107;BMP280;48087;32.600;-97.100;2022-10-26T09:35:57;;;;7.166594999999999
62107;BMP280;48087;32.600;-97.100;2022-10-26T09:41:02;;;;7.22215
62107;BMP280;48087;32.600;-97.100;2022-10-26T09:46:07;;;;7.277705000000001
62107;BMP280;48087;32.600;-97.100;2022-10-26T09:51:09;;;;7.22215
62107;BMP280;48087;32.600;-97.100;2022-10-26T09:56:12;;;;6.888819999999999
62107;BMP280;48087;32.600;-97.100;2022-10-26T10:01:21;;;;7.111039999999998
62107;BMP280;48087;32.600;-97.100;2022-10-26T10:06:20;;;;6.888819999999999
62107;BMP280;48087;32.600;-97.100;2022-10-26T10:11:24;;;;6.999930000000001
62107;BMP280;48087;32.600;-97.100;2022-10-26T10:16:28;;;;7.166594999999999
62107;BMP280;48087;32.600;-97.100;2022-10-26T10:21:34;;;;7.055485000000002
62107;BMP280;48087;32.600;-97.100;2022-10-26T10:26:42;;;;7.22215
62107;BMP280;48087;32.600;-97.100;2022-10-26T10:31:41;;;;7.055485000000002
62107;BMP280;48087;32.600;-97.100;2022-10-26T10:36:44;;;;6.777710000000002
62107;BMP280;48087;32.600;-97.100;2022-10-26T10:41:48;;;;6.499935000000002
62107;BMP280;48087;32.600;-97.100;2022-10-26T10:46:58;;;;6.333269999999999
62107;BMP280;48087;32.600;-97.100;2022-10-26T10:51:56;;;;6.055494999999999
62107;BMP280;48087;32.600;-97.100;2022-10-26T10:57:02;;;;6.055494999999999
62107;BMP280;48087;32.600;-97.100;2022-10-26T11:02:41;;;;6.166605000000001
62107;BMP280;48087;32.600;-97.100;2022-10-26T11:07:09;;;;6.333269999999999
62107;BMP280;48087;32.600;-97.100;2022-10-26T11:12:14;;;;5.999939999999999
62107;BMP280;48087;32.600;-97.100;2022-10-26T11:17:17;;;;6.277714999999998
62107;BMP280;48087;32.600;-97.100;2022-10-26T11:22:23;;;;6.055494999999999
62107;BMP280;48087;32.600;-97.100;2022-10-26T11:27:24;;;;6.055494999999999
62107;BMP280;48087;32.600;-97.100;2022-10-26T11:32:29;;;;6.166605000000001
62107;BMP280;48087;32.600;-97.100;2022-10-26T11:37:33;;;;6.166605000000001
62107;BMP280;48087;32.600;-97.100;2022-10-26T11:42:38;;;;6.2221600000000015
62107;BMP280;48087;32.600;-97.100;2022-10-26T11:47:41;;;;6.333269999999999
62107;BMP280;48087;32.600;-97.100;2022-10-26T11:52:45;;;;6.388825
62107;BMP280;48087;32.600;-97.100;2022-10-26T11:57:47;;;;6.444380000000001
62107;BMP280;48087;32.600;-97.100;2022-10-26T12:02:54;;;;6.388825
62107;BMP280;48087;32.600;-97.100;2022-10-26T12:07:56;;;;6.444380000000001
62107;BMP280;48087;32.600;-97.100;2022-10-26T12:13:03;;;;6.444380000000001
62107;BMP280;48087;32.600;-97.100;2022-10-26T12:18:07;;;;6.388825
62107;BMP280;48087;32.600;-97.100;2022-10-26T12:23:09;;;;6.333269999999999
62107;BMP280;48087;32.600;-97.100;2022-10-26T12:28:37;;;;6.055494999999999
62107;BMP280;48087;32.600;-97.100;2022-10-26T12:33:26;;;;6.055494999999999
62107;BMP280;48087;32.600;-97.100;2022-10-26T12:43:34;;;;5.8888300000000005
62107;BMP280;48087;32.600;-97.100;2022-10-26T12:48:37;;;;5.8332749999999995
62107;BMP280;48087;32.600;-97.100;2022-10-26T12:53:32;;;;6.2221600000000015
62107;BMP280;48087;32.600;-97.100;2022-10-26T12:58:57;;;;6.444380000000001
62107;BMP280;48087;32.600;-97.100;2022-10-26T13:03:44;;;;6.499935000000002
62107;BMP280;48087;32.600;-97.100;2022-10-26T13:08:44;;;;6.555489999999998
62107;BMP280;48087;32.600;-97.100;2022-10-26T13:13:51;;;;6.444380000000001
62107;BMP280;48087;32.600;-97.100;2022-10-26T13:18:52;;;;6.944375
62107;BMP280;48087;32.600;-97.100;2022-10-26T13:23:57;;;;7.333260000000001
62107;BMP280;48087;32.600;-97.100;2022-10-26T13:29:01;;;;7.888810000000001
62107;BMP280;48087;32.600;-97.100;2022-10-26T13:34:04;;;;8.833245
62107;BMP280;48087;32.600;-97.100;2022-10-26T13:39:09;;;;9.11102
62107;BMP280;48087;32.600;-97.100;2022-10-26T13:44:13;;;;9.388794999999998
62107;BMP280;48087;32.600;-97.100;2022-10-26T13:49:18;;;;9.555460000000002
62107;BMP280;48087;32.600;-97.100;2022-10-26T13:54:22;;;;9.722125
62107;BMP280;48087;32.600;-97.100;2022-10-26T13:59:24;;;;9.833235000000002
62107;BMP280;48087;32.600;-97.100;2022-10-26T14:04:29;;;;10.222119999999999
62107;BMP280;48087;32.600;-97.100;2022-10-26T14:09:31;;;;10.66656
62107;BMP280;48087;32.600;-97.100;2022-10-26T14:14:36;;;;10.88878
62107;BMP280;48087;32.600;-97.100;2022-10-26T14:19:39;;;;11.22211
62107;BMP280;48087;32.600;-97.100;2022-10-26T14:24:48;;;;11.666549999999999
62107;BMP280;48087;32.600;-97.100;2022-10-26T14:29:49;;;;11.944325
62107;BMP280;48087;32.600;-97.100;2022-10-26T14:34:51;;;;12.2221
62107;BMP280;48087;32.600;-97.100;2022-10-26T14:39:56;;;;12.44432
62107;BMP280;48087;32.600;-97.100;2022-10-26T14:44:59;;;;12.77765
62107;BMP280;48087;32.600;-97.100;2022-10-26T14:50:04;;;;13.166535000000001
62107;BMP280;48087;32.600;-97.100;2022-10-26T14:55:11;;;;13.499864999999998
62107;BMP280;48087;32.600;-97.100;2022-10-26T15:00:12;;;;13.833194999999998
62107;BMP280;48087;32.600;-97.100;2022-10-26T15:05:18;;;;14.055414999999998
62107;BMP280;48087;32.600;-97.100;2022-10-26T15:10:44;;;;14.333189999999998
62107;BMP280;48087;32.600;-97.100;2022-10-26T15:15:24;;;;14.4443
62107;BMP280;48087;32.600;-97.100;2022-10-26T15:20:28;;;;14.77763
62107;BMP280;48087;32.600;-97.100;2022-10-26T15:25:32;;;;15.055405
62107;BMP280;48087;32.600;-97.100;2022-10-26T15:30:36;;;;15.33318
62107;BMP280;48087;32.600;-97.100;2022-10-26T15:35:40;;;;15.555399999999999
62107;BMP280;48087;32.600;-97.100;2022-10-26T15:40:43;;;;15.777619999999999
62107;BMP280;48087;32.600;-97.100;2022-10-26T15:45:47;;;;16.055394999999997
62107;BMP280;48087;32.600;-97.100;2022-10-26T15:50:52;;;;16.222060000000003
62107;BMP280;48087;32.600;-97.100;2022-10-26T15:55:56;;;;16.33317
62107;BMP280;48087;32.600;-97.100;2022-10-26T16:01:00;;;;16.610944999999997
62107;BMP280;48087;32.600;-97.100;2022-10-26T16:06:03;;;;16.777610000000003
62107;BMP280;48087;32.600;-97.100;2022-10-26T16:11:07;;;;17.055385
62107;BMP280;48087;32.600;-97.100;2022-10-26T16:16:11;;;;17.11094
62107;BMP280;48087;32.600;-97.100;2022-10-26T16:21:16;;;;17.33316
62107;BMP280;48087;32.600;-97.100;2022-10-26T16:26:19;;;;17.388714999999998
62107;BMP280;48087;32.600;-97.100;2022-10-26T16:31:23;;;;17.66649
62107;BMP280;48087;32.600;-97.100;2022-10-26T16:36:27;;;;17.833154999999998
62107;BMP280;48087;32.600;-97.100;2022-10-26T16:41:32;;;;17.999820000000003
62107;BMP280;48087;32.600;-97.100;2022-10-26T16:46:35;;;;18.110929999999996
62107;BMP280;48087;32.600;-97.100;2022-10-26T16:51:40;;;;18.388704999999998
62107;BMP280;48087;32.600;-97.100;2022-10-26T16:56:42;;;;18.499814999999998
62107;BMP280;48087;32.600;-97.100;2022-10-26T17:01:48;;;;18.610924999999998
62107;BMP280;48087;32.600;-97.100;2022-10-26T17:06:51;;;;18.722035
62107;BMP280;48087;32.600;-97.100;2022-10-26T17:11:55;;;;19.055365
62107;BMP280;48087;32.600;-97.100;2022-10-26T17:16:59;;;;19.277585000000002
62107;BMP280;48087;32.600;-97.100;2022-10-26T17:22:03;;;;19.722025
62107;BMP280;48087;32.600;-97.100;2022-10-26T17:27:06;;;;19.9998
62107;BMP280;48087;32.600;-97.100;2022-10-26T17:32:12;;;;20.277575
62107;BMP280;48087;32.600;-97.100;2022-10-26T17:37:15;;;;20.722015
62107;BMP280;48087;32.600;-97.100;2022-10-26T17:42:20;;;;20.66646
62107;BMP280;48087;32.600;-97.100;2022-10-26T17:47:24;;;;21.499785000000003
62107;BMP280;48087;32.600;-97.100;2022-10-26T17:52:27;;;;21.388675
62107;BMP280;48087;32.600;-97.100;2022-10-26T17:57:31;;;;21.88867
62107;BMP280;48087;32.600;-97.100;2022-10-26T18:02:35;;;;22.666439999999998
62107;BMP280;48087;32.600;-97.100;2022-10-26T18:07:40;;;;22.44422
62107;BMP280;48087;32.600;-97.100;2022-10-26T18:12:43;;;;22.33311
62107;BMP280;48087;32.600;-97.100;2022-10-26T18:17:49;;;;22.44422
62107;BMP280;48087;32.600;-97.100;2022-10-26T18:22:50;;;;22.610885
62107;BMP280;48087;32.600;-97.100;2022-10-26T18:27:55;;;;22.777549999999998
62107;BMP280;48087;32.600;-97.100;2022-10-26T18:32:58;;;;23.666429999999995
62107;BMP280;48087;32.600;-97.100;2022-10-26T18:38:04;;;;23.721985
62107;BMP280;48087;32.600;-97.100;2022-10-26T18:43:07;;;;24.166425
62107;BMP280;48087;32.600;-97.100;2022-10-26T18:48:11;;;;23.77754
62107;BMP280;48087;32.600;-97.100;2022-10-26T18:53:14;;;;23.388654999999996
62107;BMP280;48087;32.600;-97.100;2022-10-26T18:58:19;;;;24.499754999999997
62107;BMP280;48087;32.600;-97.100;2022-10-26T19:03:22;;;;24.555310000000002
62107;BMP280;48087;32.600;-97.100;2022-10-26T19:08:27;;;;24.055314999999997
62107;BMP280;48087;32.600;-97.100;2022-10-26T19:13:30;;;;23.833095000000004
62107;BMP280;48087;32.600;-97.100;2022-10-26T19:18:36;;;;24.88864
62107;BMP280;48087;32.600;-97.100;2022-10-26T19:23:39;;;;24.055314999999997
62107;BMP280;48087;32.600;-97.100;2022-10-26T19:28:43;;;;24.4442
62107;BMP280;48087;32.600;-97.100;2022-10-26T19:33:46;;;;25.221970000000002
62107;BMP280;48087;32.600;-97.100;2022-10-26T19:38:51;;;;24.4442
62107;BMP280;48087;32.600;-97.100;2022-10-26T19:43:54;;;;24.33309
62107;BMP280;48087;32.600;-97.100;2022-10-26T19:48:59;;;;24.4442
62107;BMP280;48087;32.600;-97.100;2022-10-26T19:54:02;;;;24.833085
62107;BMP280;48087;32.600;-97.100;2022-10-26T19:59:06;;;;24.777529999999995
62107;BMP280;48087;32.600;-97.100;2022-10-26T20:04:10;;;;25.221970000000002
62107;BMP280;48087;32.600;-97.100;2022-10-26T20:09:15;;;;25.5553
62107;BMP280;48087;32.600;-97.100;2022-10-26T20:14:18;;;;24.610864999999997
62107;BMP280;48087;32.600;-97.100;2022-10-26T20:19:23;;;;24.99975
62107;BMP280;48087;32.600;-97.100;2022-10-26T20:24:26;;;;25.721964999999997
62107;BMP280;48087;32.600;-97.100;2022-10-26T20:29:31;;;;26.166404999999997
62107;BMP280;48087;32.600;-97.100;2022-10-26T20:34:34;;;;25.777520000000003
62107;BMP280;48087;32.600;-97.100;2022-10-26T20:39:39;;;;26.444179999999996
62107;BMP280;48087;32.600;-97.100;2022-10-26T20:44:42;;;;25.221970000000002
62107;BMP280;48087;32.600;-97.100;2022-10-26T20:49:46;;;;25.610854999999997
62107;BMP280;48087;32.600;-97.100;2022-10-26T20:54:51;;;;25.666410000000003
62107;BMP280;48087;32.600;-97.100;2022-10-26T20:59:55;;;;24.99975
62107;BMP280;48087;32.600;-97.100;2022-10-26T21:04:58;;;;25.888629999999996
62107;BMP280;48087;32.600;-97.100;2022-10-26T21:10:03;;;;25.110860000000002
62107;BMP280;48087;32.600;-97.100;2022-10-26T21:15:06;;;;25.5553
62107;BMP280;48087;32.600;-97.100;2022-10-26T21:20:10;;;;25.777520000000003
62107;BMP280;48087;32.600;-97.100;2022-10-26T21:25:14;;;;26.166404999999997
62107;BMP280;48087;32.600;-97.100;2022-10-26T21:30:19;;;;25.777520000000003
62107;BMP280;48087;32.600;-97.100;2022-10-26T21:35:22;;;;26.166404999999997
62107;BMP280;48087;32.600;-97.100;2022-10-26T21:40:27;;;;26.499735
62107;BMP280;48087;32.600;-97.100;2022-10-26T21:45:30;;;;26.055295
62107;BMP280;48087;32.600;-97.100;2022-10-26T21:50:35;;;;25.99974
62107;BMP280;48087;32.600;-97.100;2022-10-26T21:55:38;;;;25.277525
62107;BMP280;48087;32.600;-97.100;2022-10-26T22:00:43;;;;25.333079999999995
62107;BMP280;48087;32.600;-97.100;2022-10-26T22:05:49;;;;25.388635
62107;BMP280;48087;32.600;-97.100;2022-10-26T22:10:51;;;;25.166414999999997
62107;BMP280;48087;32.600;-97.100;2022-10-26T22:16:02;;;;24.666420000000002
62107;BMP280;48087;32.600;-97.100;2022-10-26T22:20:59;;;;23.999760000000002
62107;BMP280;48087;32.600;-97.100;2022-10-26T22:26:02;;;;23.77754
62107;BMP280;48087;32.600;-97.100;2022-10-26T22:31:07;;;;23.77754
62107;BMP280;48087;32.600;-97.100;2022-10-26T22:36:10;;;;23.499764999999996
62107;BMP280;48087;32.600;-97.100;2022-10-26T22:41:14;;;;23.944204999999997
62107;BMP280;48087;32.600;-97.100;2022-10-26T22:46:18;;;;24.110870000000002
62107;BMP280;48087;32.600;-97.100;2022-10-26T22:51:23;;;;23.721985
62107;BMP280;48087;32.600;-97.100;2022-10-26T22:56:26;;;;23.388654999999996
62107;BMP280;48087;32.600;-97.100;2022-10-26T23:01:31;;;;22.99977
62107;BMP280;48087;32.600;-97.100;2022-10-26T23:06:33;;;;22.99977
62107;BMP280;48087;32.600;-97.100;2022-10-26T23:11:38;;;;22.944214999999996
62107;BMP280;48087;32.600;-97.100;2022-10-26T23:16:41;;;;22.721995000000003
62107;BMP280;48087;32.600;-97.100;2022-10-26T23:21:46;;;;22.222
62107;BMP280;48087;32.600;-97.100;2022-10-26T23:26:50;;;;21.833115
62107;BMP280;48087;32.600;-97.100;2022-10-26T23:31:54;;;;20.999789999999997
62107;BMP280;48087;32.600;-97.100;2022-10-26T23:36:57;;;;20.222020000000004
62107;BMP280;48087;32.600;-97.100;2022-10-26T23:42:02;;;;19.499804999999995
62107;BMP280;48087;32.600;-97.100;2022-10-26T23:47:05;;;;18.99981
62107;BMP280;48087;32.600;-97.100;2022-10-26T23:52:10;;;;18.610924999999998
62107;BMP280;48087;32.600;-97.100;2022-10-26T23:57:14;;;;18.388704999999998
